Time;durP1;ratioP1;P1;durP2;ratioP2;P2;SDS_P1;SDS_P2;PMS_P1;PMS_P2;Temp;Humidity;BMP_temperature;BMP_pressure;BME280_temperature;BME280_humidity;BME280_pressure;Samples;Min_cycle;Max_cycle;Signal;HPM_P1;HPM_P2
2022/04/03 00:02:24;;;;;;;8.63;2.35;;;;;;;;;;5038411;28;20029;-69
2022/04/03 00:04:50;;;;;;;7.63;2.67;;;;;;;;;;5037610;28;20504;-69
2022/04/03 00:07:16;;;;;;;11.95;2.60;;;;;;;;;;5042441;28;20049;-69
2022/04/03 00:09:43;;;;;;;8.52;2.65;;;;;;;;;;5038692;28;20029;-69
2022/04/03 00:12:09;;;;;;;9.38;2.40;;;;;;;;;;5041727;28;20025;-70
2022/04/03 00:14:35;;;;;;;9.43;2.33;;;;;;;;;;5037635;28;20043;-70
2022/04/03 00:17:01;;;;;;;10.63;2.70;;;;;;;;;;5037510;28;20367;-70
2022/04/03 00:19:27;;;;;;;10.65;2.60;;;;;;;;;;5043009;28;20036;-69
2022/04/03 00:21:53;;;;;;;10.25;2.10;;;;;;;;;;5037672;28;20474;-69
2022/04/03 00:24:19;;;;;;;9.73;2.85;;;;;;;;;;5040563;28;20095;-69
2022/04/03 00:26:46;;;;;;;6.75;2.40;;;;;;;;;;5037657;28;20029;-69
2022/04/03 00:29:12;;;;;;;5.82;2.13;;;;;;;;;;5038827;28;20029;-69
2022/04/03 00:31:38;;;;;;;12.40;2.83;;;;;;;;;;5038022;28;20029;-69
2022/04/03 00:34:04;;;;;;;12.82;2.65;;;;;;;;;;5042224;28;20028;-69
2022/04/03 00:36:30;;;;;;;9.48;2.08;;;;;;;;;;5037372;28;20079;-69
2022/04/03 00:38:56;;;;;;;12.43;2.33;;;;;;;;;;5039501;28;20055;-69
2022/04/03 00:41:23;;;;;;;17.52;3.10;;;;;;;;;;5041408;28;20466;-69
2022/04/03 00:43:49;;;;;;;13.90;2.33;;;;;;;;;;5037095;28;20052;-69
2022/04/03 00:46:18;;;;;;;6.88;2.10;;;;;;;;;;5035348;28;20929;-69
2022/04/03 00:48:47;;;;;;;10.25;2.53;;;;;;;;;;5033409;28;20064;-71
2022/04/03 00:51:13;;;;;;;10.52;2.60;;;;;;;;;;5039244;28;20082;-70
2022/04/03 00:53:39;;;;;;;7.20;2.17;;;;;;;;;;5035683;28;20033;-69
2022/04/03 00:56:08;;;;;;;8.93;2.13;;;;;;;;;;5030355;28;20022;-69
2022/04/03 00:58:36;;;;;;;8.27;1.90;;;;;;;;;;5030846;28;20122;-70
2022/04/03 01:01:02;;;;;;;7.65;2.03;;;;;;;;;;5030511;28;20029;-70
2022/04/03 01:03:29;;;;;;;7.88;1.90;;;;;;;;;;5039347;28;20076;-70
2022/04/03 01:05:56;;;;;;;8.98;2.08;;;;;;;;;;5032593;28;20127;-70
2022/04/03 01:08:24;;;;;;;12.52;2.50;;;;;;;;;;5031666;28;20052;-70
2022/04/03 01:10:50;;;;;;;12.05;2.83;;;;;;;;;;5033493;28;20029;-69
2022/04/03 01:13:16;;;;;;;6.53;1.70;;;;;;;;;;5033901;28;20040;-70
2022/04/03 01:15:42;;;;;;;7.32;1.63;;;;;;;;;;5031991;28;20398;-69
2022/04/03 01:18:09;;;;;;;10.32;1.80;;;;;;;;;;5030840;28;20786;-69
2022/04/03 01:20:36;;;;;;;19.45;2.38;;;;;;;;;;5020607;28;20448;-69
2022/04/03 01:23:02;;;;;;;10.90;2.30;;;;;;;;;;5033875;28;20049;-70
2022/04/03 01:25:28;;;;;;;10.23;2.30;;;;;;;;;;5030881;28;20037;-70
2022/04/03 01:27:54;;;;;;;5.88;2.55;;;;;;;;;;5030769;28;20760;-70
2022/04/03 01:30:20;;;;;;;9.57;2.38;;;;;;;;;;5034728;28;20029;-70
2022/04/03 01:32:46;;;;;;;5.53;1.63;;;;;;;;;;5015435;28;20465;-70
2022/04/03 01:35:12;;;;;;;12.45;2.33;;;;;;;;;;5031530;28;20041;-69
2022/04/03 01:37:41;;;;;;;10.45;2.33;;;;;;;;;;5032935;28;20051;-70
2022/04/03 01:40:08;;;;;;;6.10;1.83;;;;;;;;;;5036124;28;20093;-70
2022/04/03 01:42:34;;;;;;;8.07;1.77;;;;;;;;;;5035728;28;20440;-71
2022/04/03 01:45:00;;;;;;;8.43;1.88;;;;;;;;;;5034310;28;20029;-69
2022/04/03 01:47:27;;;;;;;10.35;1.85;;;;;;;;;;5033065;28;20028;-69
2022/04/03 01:49:53;;;;;;;8.93;2.10;;;;;;;;;;5038271;28;20025;-69
2022/04/03 01:52:19;;;;;;;4.28;1.65;;;;;;;;;;5036599;28;20565;-69
2022/04/03 01:54:45;;;;;;;9.95;2.58;;;;;;;;;;5033352;28;20025;-69
2022/04/03 01:57:11;;;;;;;11.35;2.40;;;;;;;;;;5036644;28;20090;-69
2022/04/03 01:59:37;;;;;;;8.57;2.05;;;;;;;;;;5039953;28;20033;-69
2022/04/03 02:02:04;;;;;;;7.50;2.05;;;;;;;;;;5038097;28;20029;-69
2022/04/03 02:04:30;;;;;;;6.18;1.70;;;;;;;;;;5039350;28;20112;-71
2022/04/03 02:06:57;;;;;;;7.50;1.55;;;;;;;;;;5040515;28;20071;-69
2022/04/03 02:09:24;;;;;;;8.60;1.85;;;;;;;;;;5036504;28;20078;-69
2022/04/03 02:11:50;;;;;;;9.40;2.22;;;;;;;;;;5036798;28;20029;-69
2022/04/03 02:14:16;;;;;;;11.32;1.92;;;;;;;;;;5041761;28;20032;-69
2022/04/03 02:16:42;;;;;;;10.20;1.80;;;;;;;;;;5040343;28;20029;-69
2022/04/03 02:19:08;;;;;;;6.97;2.25;;;;;;;;;;5019379;28;20036;-69
2022/04/03 02:21:34;;;;;;;8.23;2.40;;;;;;;;;;5041657;28;20037;-69
2022/04/03 02:24:00;;;;;;;9.52;2.15;;;;;;;;;;5041984;28;20071;-69
2022/04/03 02:26:26;;;;;;;9.82;1.73;;;;;;;;;;5019431;28;20025;-69
2022/04/03 02:28:53;;;;;;;9.40;1.85;;;;;;;;;;5035839;28;20362;-69
2022/04/03 02:31:19;;;;;;;5.53;1.67;;;;;;;;;;5039470;28;20028;-69
2022/04/03 02:33:45;;;;;;;10.20;2.42;;;;;;;;;;5038269;28;20041;-69
2022/04/03 02:36:11;;;;;;;12.95;2.35;;;;;;;;;;5040292;28;20029;-69
2022/04/03 02:38:38;;;;;;;12.57;2.03;;;;;;;;;;5039996;28;20028;-69
2022/04/03 02:41:04;;;;;;;10.80;2.00;;;;;;;;;;5039260;28;20469;-69
2022/04/03 02:43:30;;;;;;;10.52;1.92;;;;;;;;;;5039803;28;20045;-69
2022/04/03 02:45:56;;;;;;;8.35;1.88;;;;;;;;;;5038819;28;20032;-69
2022/04/03 02:48:22;;;;;;;10.77;1.83;;;;;;;;;;5033360;28;20029;-69
2022/04/03 02:50:49;;;;;;;11.13;2.90;;;;;;;;;;5042527;28;20120;-69
2022/04/03 02:53:15;;;;;;;7.93;1.80;;;;;;;;;;5036873;28;20025;-69
2022/04/03 02:55:41;;;;;;;10.95;2.15;;;;;;;;;;5038059;28;20608;-69
2022/04/03 02:58:07;;;;;;;9.70;2.28;;;;;;;;;;5041235;28;20657;-70
2022/04/03 03:00:35;;;;;;;9.63;1.98;;;;;;;;;;5044701;28;20104;-69
2022/04/03 03:03:02;;;;;;;9.15;2.30;;;;;;;;;;5039968;28;20132;-69
2022/04/03 03:05:28;;;;;;;6.88;1.83;;;;;;;;;;5040974;28;20427;-69
2022/04/03 03:07:55;;;;;;;10.55;1.90;;;;;;;;;;5046268;28;20374;-69
2022/04/03 03:10:23;;;;;;;9.60;1.60;;;;;;;;;;5044851;28;20716;-69
2022/04/03 03:12:50;;;;;;;10.88;1.88;;;;;;;;;;5039087;28;20520;-69
2022/04/03 03:15:17;;;;;;;6.65;1.50;;;;;;;;;;5037832;28;20040;-69
2022/04/03 03:17:44;;;;;;;6.93;1.67;;;;;;;;;;5038197;28;20106;-70
2022/04/03 03:20:10;;;;;;;7.57;1.73;;;;;;;;;;5039024;28;20075;-69
2022/04/03 03:22:37;;;;;;;9.23;2.13;;;;;;;;;;5042368;28;20033;-69
2022/04/03 03:25:05;;;;;;;6.38;2.33;;;;;;;;;;5041593;28;20044;-69
2022/04/03 03:27:31;;;;;;;8.82;2.00;;;;;;;;;;5039380;28;20025;-69
2022/04/03 03:29:57;;;;;;;10.98;2.10;;;;;;;;;;5042305;28;20040;-70
2022/04/03 03:32:24;;;;;;;6.97;2.00;;;;;;;;;;5042769;28;20511;-70
2022/04/03 03:34:54;;;;;;;8.55;1.45;;;;;;;;;;5042591;28;20037;-69
2022/04/03 03:37:21;;;;;;;5.10;1.80;;;;;;;;;;5041197;28;20021;-70
2022/04/03 03:39:47;;;;;;;4.40;1.70;;;;;;;;;;5042737;28;20767;-70
2022/04/03 03:42:14;;;;;;;9.38;1.60;;;;;;;;;;5042111;28;20079;-69
2022/04/03 03:44:40;;;;;;;9.90;1.90;;;;;;;;;;5042005;28;20044;-69
2022/04/03 03:47:07;;;;;;;6.70;2.13;;;;;;;;;;5042089;28;20021;-70
2022/04/03 03:49:34;;;;;;;7.25;2.00;;;;;;;;;;5041756;28;20036;-71
2022/04/03 03:52:00;;;;;;;10.68;2.15;;;;;;;;;;5040537;28;20021;-69
2022/04/03 03:54:26;;;;;;;13.20;2.70;;;;;;;;;;5042764;28;20040;-69
2022/04/03 03:56:53;;;;;;;8.18;1.67;;;;;;;;;;5042217;28;20051;-69
2022/04/03 03:59:19;;;;;;;7.57;2.75;;;;;;;;;;5035718;28;20036;-70
2022/04/03 04:01:45;;;;;;;7.35;2.42;;;;;;;;;;5042035;28;20033;-69
2022/04/03 04:04:11;;;;;;;9.75;2.75;;;;;;;;;;5039603;28;20037;-70
2022/04/03 04:06:37;;;;;;;8.60;1.65;;;;;;;;;;5041936;28;20059;-70
2022/04/03 04:09:04;;;;;;;9.13;2.13;;;;;;;;;;5041760;28;20033;-69
2022/04/03 04:11:30;;;;;;;7.03;1.60;;;;;;;;;;5041872;28;20064;-70
2022/04/03 04:13:56;;;;;;;8.50;2.10;;;;;;;;;;5039921;28;20029;-69
2022/04/03 04:16:23;;;;;;;13.18;2.28;;;;;;;;;;5041989;28;20075;-70
2022/04/03 04:18:49;;;;;;;9.50;2.00;;;;;;;;;;5041851;28;20037;-70
2022/04/03 04:21:16;;;;;;;4.10;1.60;;;;;;;;;;5041254;28;20036;-69
2022/04/03 04:23:43;;;;;;;10.15;1.77;;;;;;;;;;5040127;28;20048;-69
2022/04/03 04:26:09;;;;;;;17.60;2.42;;;;;;;;;;5039721;28;20355;-69
2022/04/03 04:28:36;;;;;;;6.97;1.83;;;;;;;;;;5033769;28;20334;-70
2022/04/03 04:31:02;;;;;;;6.38;1.85;;;;;;;;;;5040006;28;20449;-70
2022/04/03 04:33:28;;;;;;;8.32;1.80;;;;;;;;;;5041071;28;20033;-69
2022/04/03 04:35:54;;;;;;;7.25;2.05;;;;;;;;;;5040012;28;20115;-69
2022/04/03 04:38:21;;;;;;;9.27;1.88;;;;;;;;;;5040843;28;20366;-72
2022/04/03 04:40:47;;;;;;;10.77;1.80;;;;;;;;;;5041183;28;20425;-70
2022/04/03 04:43:13;;;;;;;9.70;1.67;;;;;;;;;;5041135;28;20512;-69
2022/04/03 04:45:40;;;;;;;5.93;1.90;;;;;;;;;;5039574;28;20029;-69
2022/04/03 04:48:06;;;;;;;8.80;1.90;;;;;;;;;;5041079;28;20032;-70
2022/04/03 04:50:32;;;;;;;7.82;2.03;;;;;;;;;;5040952;28;20024;-69
2022/04/03 04:52:59;;;;;;;15.20;2.25;;;;;;;;;;5041059;28;20025;-71
2022/04/03 04:55:25;;;;;;;6.13;1.60;;;;;;;;;;5039405;28;20060;-70
2022/04/03 04:57:53;;;;;;;6.82;1.85;;;;;;;;;;5040903;28;20090;-70
2022/04/03 05:00:20;;;;;;;10.73;2.38;;;;;;;;;;5041018;28;20029;-70
2022/04/03 05:02:46;;;;;;;9.20;1.85;;;;;;;;;;5040290;28;20052;-70
2022/04/03 05:05:14;;;;;;;7.20;1.80;;;;;;;;;;5040975;28;20033;-70
2022/04/03 05:07:40;;;;;;;5.70;2.53;;;;;;;;;;5040311;28;20045;-70
2022/04/03 05:10:07;;;;;;;5.90;1.75;;;;;;;;;;5039521;28;20029;-69
2022/04/03 05:12:34;;;;;;;10.05;2.33;;;;;;;;;;5040325;28;20059;-69
2022/04/03 05:15:01;;;;;;;8.63;1.95;;;;;;;;;;5040799;28;20024;-70
2022/04/03 05:17:28;;;;;;;7.72;2.40;;;;;;;;;;5039513;28;20920;-70
2022/04/03 05:19:55;;;;;;;7.47;1.70;;;;;;;;;;5039035;28;20040;-70
2022/04/03 05:22:23;;;;;;;5.47;1.90;;;;;;;;;;5039392;28;20033;-69
2022/04/03 05:24:53;;;;;;;9.95;1.80;;;;;;;;;;5040479;28;20048;-69
2022/04/03 05:27:19;;;;;;;7.10;2.10;;;;;;;;;;5038160;28;20072;-70
2022/04/03 05:29:46;;;;;;;7.70;2.20;;;;;;;;;;5038420;28;20048;-69
2022/04/03 05:32:12;;;;;;;5.50;1.92;;;;;;;;;;5040660;28;20027;-69
2022/04/03 05:34:39;;;;;;;8.15;1.65;;;;;;;;;;5040581;28;20029;-69
2022/04/03 05:37:06;;;;;;;8.10;2.15;;;;;;;;;;5037944;28;20143;-69
2022/04/03 05:39:32;;;;;;;11.18;2.92;;;;;;;;;;5040551;28;20025;-69
2022/04/03 05:41:58;;;;;;;21.48;3.50;;;;;;;;;;5040147;28;20029;-69
2022/04/03 05:44:25;;;;;;;9.75;2.55;;;;;;;;;;5040403;28;20040;-69
2022/04/03 05:46:51;;;;;;;7.75;1.98;;;;;;;;;;5039810;28;20056;-69
2022/04/03 05:49:18;;;;;;;11.38;1.85;;;;;;;;;;5037801;28;20044;-69
2022/04/03 05:51:44;;;;;;;6.47;1.88;;;;;;;;;;5039996;28;20044;-70
2022/04/03 05:54:11;;;;;;;10.38;2.47;;;;;;;;;;5040258;28;20098;-69
2022/04/03 05:56:37;;;;;;;8.52;2.22;;;;;;;;;;5040213;28;20116;-69
2022/04/03 05:59:03;;;;;;;10.10;2.55;;;;;;;;;;5039288;28;20108;-69
2022/04/03 06:01:30;;;;;;;11.82;2.55;;;;;;;;;;5038201;28;20033;-69
2022/04/03 06:03:57;;;;;;;7.97;2.03;;;;;;;;;;5040026;28;20590;-70
2022/04/03 06:06:23;;;;;;;7.70;1.58;;;;;;;;;;5038964;28;20045;-71
2022/04/03 06:08:49;;;;;;;19.23;3.65;;;;;;;;;;5046655;28;20039;-71
2022/04/03 06:11:16;;;;;;;11.95;1.80;;;;;;;;;;5039735;28;20041;-70
2022/04/03 06:13:42;;;;;;;9.07;2.10;;;;;;;;;;5043494;28;20079;-77
2022/04/03 06:16:08;;;;;;;10.65;2.22;;;;;;;;;;5044844;28;20522;-69
2022/04/03 06:18:34;;;;;;;8.85;2.47;;;;;;;;;;5038835;28;20041;-70
2022/04/03 06:21:00;;;;;;;16.50;2.70;;;;;;;;;;5039552;28;20032;-70
2022/04/03 06:23:27;;;;;;;9.43;2.88;;;;;;;;;;5038424;28;20114;-71
2022/04/03 06:25:54;;;;;;;13.85;2.60;;;;;;;;;;5037783;28;20492;-70
2022/04/03 06:28:20;;;;;;;7.35;1.75;;;;;;;;;;5038716;28;20040;-70
2022/04/03 06:30:46;;;;;;;11.88;2.38;;;;;;;;;;5039267;28;20104;-70
2022/04/03 06:33:13;;;;;;;9.80;1.90;;;;;;;;;;5039254;28;20032;-70
2022/04/03 06:35:39;;;;;;;8.43;1.92;;;;;;;;;;5037974;28;20128;-71
2022/04/03 06:38:05;;;;;;;8.63;2.10;;;;;;;;;;5038998;28;20060;-70
2022/04/03 06:40:32;;;;;;;8.50;1.65;;;;;;;;;;5038852;28;20028;-70
2022/04/03 06:42:58;;;;;;;8.40;2.13;;;;;;;;;;5030236;28;20041;-75
2022/04/03 06:45:25;;;;;;;6.90;1.80;;;;;;;;;;5038960;28;20545;-70
2022/04/03 06:47:51;;;;;;;11.38;2.70;;;;;;;;;;5038276;28;20554;-70
2022/04/03 06:50:18;;;;;;;9.05;1.92;;;;;;;;;;5038735;28;20060;-70
2022/04/03 06:52:44;;;;;;;7.70;1.90;;;;;;;;;;5035867;28;20033;-72
2022/04/03 06:55:10;;;;;;;16.10;2.28;;;;;;;;;;5039363;28;20025;-71
2022/04/03 06:57:37;;;;;;;7.63;2.05;;;;;;;;;;5037742;28;20064;-70
2022/04/03 07:00:05;;;;;;;6.65;1.80;;;;;;;;;;5039506;28;20377;-70
2022/04/03 07:02:31;;;;;;;9.38;1.95;;;;;;;;;;5038829;28;20697;-70
2022/04/03 07:04:58;;;;;;;9.35;1.85;;;;;;;;;;5039402;28;20040;-71
2022/04/03 07:07:24;;;;;;;7.70;2.17;;;;;;;;;;5037332;28;20056;-70
2022/04/03 07:09:52;;;;;;;9.70;2.00;;;;;;;;;;5039027;28;20537;-70
2022/04/03 07:12:18;;;;;;;11.35;2.30;;;;;;;;;;5039099;28;20075;-70
2022/04/03 07:14:44;;;;;;;10.02;2.20;;;;;;;;;;5038667;28;20086;-70
2022/04/03 07:17:11;;;;;;;7.57;2.65;;;;;;;;;;5037690;28;20035;-70
2022/04/03 07:19:37;;;;;;;6.05;1.70;;;;;;;;;;5039310;28;20029;-71
2022/04/03 07:22:04;;;;;;;8.32;2.15;;;;;;;;;;5039187;28;20033;-70
2022/04/03 07:24:30;;;;;;;8.30;2.03;;;;;;;;;;5039024;28;20041;-70
2022/04/03 07:26:56;;;;;;;7.15;2.05;;;;;;;;;;5034753;28;20017;-69
2022/04/03 07:29:23;;;;;;;8.93;2.05;;;;;;;;;;5039107;28;20036;-70
2022/04/03 07:31:50;;;;;;;6.10;1.73;;;;;;;;;;5037400;28;20032;-69
2022/04/03 07:34:17;;;;;;;8.55;1.80;;;;;;;;;;5039468;28;20025;-69
2022/04/03 07:36:43;;;;;;;8.23;2.10;;;;;;;;;;5038611;28;20094;-69
2022/04/03 07:39:09;;;;;;;10.48;2.10;;;;;;;;;;5038404;28;20634;-69
2022/04/03 07:41:36;;;;;;;7.63;1.80;;;;;;;;;;5042403;28;20032;-70
2022/04/03 07:44:03;;;;;;;6.28;2.03;;;;;;;;;;5041543;28;20063;-69
2022/04/03 07:46:29;;;;;;;7.65;2.30;;;;;;;;;;5042605;28;20216;-69
2022/04/03 07:48:55;;;;;;;9.77;1.90;;;;;;;;;;5042201;28;20196;-69
2022/04/03 07:51:23;;;;;;;8.07;1.75;;;;;;;;;;5042562;28;20025;-69
2022/04/03 07:53:49;;;;;;;4.93;1.65;;;;;;;;;;5038365;28;20276;-69
2022/04/03 07:56:16;;;;;;;10.95;1.95;;;;;;;;;;5042270;28;20032;-70
2022/04/03 07:58:42;;;;;;;6.03;1.80;;;;;;;;;;5041469;28;20833;-72
2022/04/03 08:01:09;;;;;;;6.40;1.90;;;;;;;;;;5040679;28;20366;-72
2022/04/03 08:03:35;;;;;;;7.28;1.90;;;;;;;;;;5041686;28;20697;-71
2022/04/03 08:06:01;;;;;;;7.13;2.45;;;;;;;;;;5041409;28;20056;-71
2022/04/03 08:08:27;;;;;;;7.65;2.08;;;;;;;;;;5039744;28;20028;-71
2022/04/03 08:10:53;;;;;;;6.03;2.10;;;;;;;;;;5041550;28;20555;-71
2022/04/03 08:13:23;;;;;;;11.90;2.30;;;;;;;;;;5040894;28;20662;-73
2022/04/03 08:15:49;;;;;;;15.43;2.28;;;;;;;;;;5040973;28;20033;-71
2022/04/03 08:18:16;;;;;;;4.95;1.85;;;;;;;;;;5040567;28;20791;-72
2022/04/03 08:20:43;;;;;;;10.48;2.70;;;;;;;;;;5039330;28;20037;-71
2022/04/03 08:23:09;;;;;;;9.82;2.47;;;;;;;;;;5041264;28;20068;-71
2022/04/03 08:25:36;;;;;;;7.03;2.20;;;;;;;;;;5039479;28;20047;-71
2022/04/03 08:28:03;;;;;;;8.20;1.88;;;;;;;;;;5040692;28;20115;-71
2022/04/03 08:30:29;;;;;;;7.90;2.47;;;;;;;;;;5041170;28;20106;-71
2022/04/03 08:32:55;;;;;;;11.20;3.20;;;;;;;;;;5039698;28;20105;-76
2022/04/03 08:35:23;;;;;;;4.18;1.88;;;;;;;;;;5040939;28;20046;-71
2022/04/03 08:37:50;;;;;;;9.70;2.67;;;;;;;;;;5040717;28;20743;-72
2022/04/03 08:40:16;;;;;;;9.40;1.83;;;;;;;;;;5024909;28;20036;-71
2022/04/03 08:42:42;;;;;;;7.30;2.35;;;;;;;;;;5043253;28;20017;-71
2022/04/03 08:45:11;;;;;;;8.95;1.80;;;;;;;;;;5043666;28;20032;-71
2022/04/03 08:47:43;;;;;;;8.25;2.35;;;;;;;;;;5041890;28;20021;-71
2022/04/03 08:50:10;;;;;;;7.35;2.03;;;;;;;;;;5041276;28;20032;-71
2022/04/03 08:52:37;;;;;;;10.00;2.25;;;;;;;;;;5043191;28;20032;-72
2022/04/03 08:55:04;;;;;;;5.45;2.00;;;;;;;;;;5043067;28;20055;-71
2022/04/03 08:57:30;;;;;;;11.55;2.08;;;;;;;;;;5042915;28;20024;-71
2022/04/03 08:59:56;;;;;;;20.40;2.80;;;;;;;;;;5041615;28;20939;-71
2022/04/03 09:02:23;;;;;;;5.90;2.20;;;;;;;;;;5043142;28;20036;-71
2022/04/03 09:04:49;;;;;;;12.95;3.55;;;;;;;;;;5042727;28;20122;-75
2022/04/03 09:07:19;;;;;;;6.80;2.05;;;;;;;;;;5006945;28;20127;-70
2022/04/03 09:09:47;;;;;;;8.75;2.20;;;;;;;;;;5002592;28;20564;-70
2022/04/03 09:12:15;;;;;;;7.93;1.98;;;;;;;;;;5001909;28;20494;-70
2022/04/03 09:14:59;;;;;;;6.80;2.15;;;;;;;;;;5002371;28;20032;-70
2022/04/03 09:17:38;;;;;;;8.57;2.30;;;;;;;;;;5001877;28;20114;-70
2022/04/03 09:20:05;;;;;;;8.55;2.42;;;;;;;;;;5002182;28;20097;-70
2022/04/03 09:22:32;;;;;;;10.70;1.95;;;;;;;;;;5002504;28;20033;-71
2022/04/03 09:24:59;;;;;;;6.75;2.22;;;;;;;;;;5002431;28;20091;-71
2022/04/03 09:27:25;;;;;;;6.55;2.13;;;;;;;;;;5001487;28;20091;-70
2022/04/03 09:30:20;;;;;;;8.57;2.60;;;;;;;;;;5000532;28;20044;-75
2022/04/03 09:32:50;;;;;;;8.75;2.30;;;;;;;;;;4975011;28;20042;-71
2022/04/03 09:35:20;;;;;;;8.80;2.00;;;;;;;;;;4983845;28;20023;-71
2022/04/03 09:38:05;;;;;;;10.80;2.60;;;;;;;;;;4981922;28;20701;-72
2022/04/03 09:40:32;;;;;;;7.78;2.08;;;;;;;;;;4983503;28;20056;-71
2022/04/03 09:43:18;;;;;;;11.30;2.67;;;;;;;;;;4982807;28;20027;-72
2022/04/03 09:45:45;;;;;;;8.27;2.33;;;;;;;;;;4982776;28;20034;-71
2022/04/03 09:48:23;;;;;;;6.25;2.28;;;;;;;;;;4982874;28;20735;-70
2022/04/03 09:50:56;;;;;;;7.65;2.13;;;;;;;;;;4982811;28;20126;-71
2022/04/03 09:53:23;;;;;;;8.63;2.03;;;;;;;;;;4980672;28;20054;-70
2022/04/03 09:55:49;;;;;;;7.57;2.25;;;;;;;;;;4981763;28;20022;-71
2022/04/03 09:58:16;;;;;;;8.35;1.77;;;;;;;;;;4981818;28;20034;-71
2022/04/03 10:00:43;;;;;;;6.60;1.95;;;;;;;;;;4982127;28;20030;-70
2022/04/03 10:03:13;;;;;;;6.43;2.47;;;;;;;;;;4979979;28;20026;-70
2022/04/03 10:05:39;;;;;;;7.07;2.33;;;;;;;;;;4985415;28;20045;-70
2022/04/03 10:08:06;;;;;;;10.40;2.30;;;;;;;;;;5022638;28;20025;-70
2022/04/03 10:10:34;;;;;;;11.93;2.53;;;;;;;;;;5022254;28;20064;-70
2022/04/03 10:13:01;;;;;;;10.43;2.38;;;;;;;;;;5022705;28;20105;-70
2022/04/03 10:15:28;;;;;;;9.30;2.78;;;;;;;;;;5022145;28;20421;-70
2022/04/03 10:17:55;;;;;;;10.23;2.75;;;;;;;;;;5020951;28;20021;-69
2022/04/03 10:20:25;;;;;;;8.35;2.17;;;;;;;;;;5022171;28;20563;-70
2022/04/03 10:22:54;;;;;;;11.30;2.88;;;;;;;;;;5021714;28;20509;-70
2022/04/03 10:25:23;;;;;;;8.98;3.03;;;;;;;;;;5022327;28;20029;-70
2022/04/03 10:27:50;;;;;;;6.93;2.00;;;;;;;;;;5020764;28;20025;-69
2022/04/03 10:30:17;;;;;;;12.18;2.85;;;;;;;;;;5022391;28;20381;-70
2022/04/03 10:32:56;;;;;;;9.05;2.40;;;;;;;;;;5022211;28;20516;-69
2022/04/03 10:35:22;;;;;;;13.13;1.88;;;;;;;;;;5022240;28;20029;-70
2022/04/03 10:37:59;;;;;;;9.05;2.13;;;;;;;;;;5022019;28;20033;-70
2022/04/03 10:40:29;;;;;;;12.15;3.58;;;;;;;;;;5037498;28;20473;-70
2022/04/03 10:42:58;;;;;;;11.38;2.53;;;;;;;;;;5039927;28;20029;-70
2022/04/03 10:45:37;;;;;;;6.70;2.30;;;;;;;;;;5041575;28;20036;-70
2022/04/03 10:48:22;;;;;;;11.05;3.20;;;;;;;;;;5041538;28;20584;-70
2022/04/03 10:51:00;;;;;;;8.38;2.40;;;;;;;;;;5041793;28;20572;-70
2022/04/03 10:53:28;;;;;;;7.85;2.92;;;;;;;;;;5040357;28;20033;-70
2022/04/03 10:55:58;;;;;;;9.55;2.65;;;;;;;;;;5041813;28;20021;-70
2022/04/03 10:58:24;;;;;;;7.93;2.13;;;;;;;;;;5041697;28;20021;-70
2022/04/03 11:00:51;;;;;;;7.93;2.25;;;;;;;;;;5042155;28;20386;-70
2022/04/03 11:03:18;;;;;;;6.93;2.30;;;;;;;;;;5041474;28;20033;-70
2022/04/03 11:05:46;;;;;;;5.80;2.20;;;;;;;;;;5040007;28;20025;-70
2022/04/03 11:08:12;;;;;;;8.77;2.65;;;;;;;;;;5041722;28;20027;-70
2022/04/03 11:11:00;;;;;;;8.32;2.92;;;;;;;;;;5041919;28;20021;-70
2022/04/03 11:13:31;;;;;;;9.77;3.20;;;;;;;;;;5039864;28;20161;-70
2022/04/03 11:15:57;;;;;;;25.00;14.30;;;;;;;;;;5044479;28;20033;-70
2022/04/03 11:18:33;;;;;;;20.25;10.88;;;;;;;;;;5045565;28;20074;-70
2022/04/03 11:21:17;;;;;;;13.35;2.83;;;;;;;;;;5044438;28;20108;-71
2022/04/03 11:23:47;;;;;;;11.07;3.00;;;;;;;;;;5045461;28;20039;-69
2022/04/03 11:26:13;;;;;;;7.10;2.40;;;;;;;;;;5045026;28;20086;-70
2022/04/03 11:28:40;;;;;;;11.05;2.53;;;;;;;;;;5045623;28;20032;-70
2022/04/03 11:31:06;;;;;;;8.23;2.45;;;;;;;;;;5044301;28;20021;-70
2022/04/03 11:33:33;;;;;;;9.23;2.75;;;;;;;;;;5045026;28;20051;-70
2022/04/03 11:36:18;;;;;;;10.10;3.47;;;;;;;;;;5045631;28;20039;-70
2022/04/03 11:38:47;;;;;;;9.50;2.30;;;;;;;;;;5045437;28;20057;-70
2022/04/03 11:41:18;;;;;;;9.10;2.60;;;;;;;;;;5044785;28;20059;-70
2022/04/03 11:43:56;;;;;;;8.50;2.80;;;;;;;;;;5044296;28;20041;-70
2022/04/03 11:46:23;;;;;;;7.93;2.28;;;;;;;;;;5044949;28;20032;-70
2022/04/03 11:48:49;;;;;;;8.35;2.70;;;;;;;;;;5045224;28;20574;-71
2022/04/03 11:51:18;;;;;;;7.22;2.20;;;;;;;;;;5045061;28;20188;-70
2022/04/03 11:53:46;;;;;;;7.57;2.10;;;;;;;;;;5044771;28;20021;-70
2022/04/03 11:56:13;;;;;;;10.70;3.92;;;;;;;;;;5043150;28;20041;-70
2022/04/03 11:58:41;;;;;;;10.48;3.65;;;;;;;;;;5045100;28;20100;-70
2022/04/03 12:01:07;;;;;;;13.25;4.90;;;;;;;;;;5044810;28;20021;-70
2022/04/03 12:03:35;;;;;;;19.65;11.38;;;;;;;;;;5044382;28;20037;-70
2022/04/03 12:06:14;;;;;;;35.45;19.77;;;;;;;;;;5042802;28;20057;-70
2022/04/03 12:08:41;;;;;;;13.82;6.07;;;;;;;;;;5044842;28;20037;-70
2022/04/03 12:11:24;;;;;;;13.65;3.25;;;;;;;;;;5044581;28;20056;-70
2022/04/03 12:13:51;;;;;;;9.38;2.70;;;;;;;;;;5042860;28;20482;-70
2022/04/03 12:16:21;;;;;;;9.25;4.47;;;;;;;;;;5044854;28;20032;-70
2022/04/03 12:18:54;;;;;;;10.70;3.30;;;;;;;;;;5045088;28;20048;-70
2022/04/03 12:21:20;;;;;;;21.20;5.05;;;;;;;;;;5044561;28;20509;-70
2022/04/03 12:24:05;;;;;;;11.57;3.83;;;;;;;;;;5044855;28;20033;-70
2022/04/03 12:26:32;;;;;;;12.48;2.80;;;;;;;;;;5044133;28;20032;-70
2022/04/03 12:28:59;;;;;;;12.85;3.70;;;;;;;;;;5043166;28;20106;-70
2022/04/03 12:31:28;;;;;;;8.20;3.97;;;;;;;;;;5044711;28;20054;-70
2022/04/03 12:34:11;;;;;;;6.20;3.67;;;;;;;;;;5044396;28;20052;-70
2022/04/03 12:36:41;;;;;;;11.05;2.80;;;;;;;;;;5044574;28;20082;-70
2022/04/03 12:39:26;;;;;;;9.02;3.28;;;;;;;;;;5044112;28;20028;-70
2022/04/03 12:41:52;;;;;;;7.32;2.50;;;;;;;;;;5042842;28;20048;-70
2022/04/03 12:44:18;;;;;;;12.55;2.55;;;;;;;;;;5043785;28;20053;-69
2022/04/03 12:46:46;;;;;;;7.45;2.30;;;;;;;;;;5044046;28;20017;-70
2022/04/03 12:49:19;;;;;;;9.27;2.70;;;;;;;;;;5044508;28;20096;-70
2022/04/03 12:51:49;;;;;;;9.57;2.53;;;;;;;;;;5043789;28;20029;-70
2022/04/03 12:54:15;;;;;;;14.93;2.70;;;;;;;;;;5043656;28;20027;-70
2022/04/03 12:59:37;;;;;;;11.05;3.30;;;;;;;;;;5043994;28;20063;-70
2022/04/03 13:02:06;;;;;;;11.63;3.05;;;;;;;;;;5043478;28;20511;-70
2022/04/03 13:04:32;;;;;;;10.38;2.67;;;;;;;;;;5042229;28;20048;-70
2022/04/03 13:06:59;;;;;;;12.93;3.30;;;;;;;;;;5043414;28;20048;-70
2022/04/03 13:09:25;;;;;;;8.30;2.53;;;;;;;;;;5043551;28;20061;-70
2022/04/03 13:11:52;;;;;;;9.98;2.85;;;;;;;;;;5043575;28;20098;-70
2022/04/03 13:14:35;;;;;;;8.25;2.90;;;;;;;;;;5043239;28;20032;-70
2022/04/03 13:17:04;;;;;;;7.57;2.92;;;;;;;;;;5041819;28;20490;-70
2022/04/03 13:19:32;;;;;;;8.93;2.80;;;;;;;;;;5043334;28;20623;-70
2022/04/03 13:21:59;;;;;;;10.80;2.80;;;;;;;;;;5043566;28;20025;-70
2022/04/03 13:24:27;;;;;;;9.75;2.97;;;;;;;;;;5043192;28;20037;-70
2022/04/03 13:26:54;;;;;;;11.77;3.47;;;;;;;;;;5041944;28;20027;-70
2022/04/03 13:29:21;;;;;;;13.35;2.50;;;;;;;;;;5042332;28;20063;-70
2022/04/03 13:31:47;;;;;;;8.07;2.75;;;;;;;;;;5042169;28;20031;-71
2022/04/03 13:34:13;;;;;;;7.78;2.53;;;;;;;;;;5041890;28;20473;-69
2022/04/03 13:36:39;;;;;;;7.88;2.97;;;;;;;;;;5042139;28;20060;-70
2022/04/03 13:39:07;;;;;;;12.35;3.03;;;;;;;;;;5038849;28;20028;-70
2022/04/03 13:41:37;;;;;;;12.93;3.47;;;;;;;;;;5036983;28;20036;-69
2022/04/03 13:44:04;;;;;;;9.10;2.15;;;;;;;;;;5036296;28;20037;-70
2022/04/03 13:46:30;;;;;;;12.98;3.40;;;;;;;;;;5039570;28;20029;-70
2022/04/03 13:48:56;;;;;;;5.72;2.28;;;;;;;;;;5040051;28;20035;-70
2022/04/03 13:51:22;;;;;;;9.35;2.80;;;;;;;;;;5039744;28;20037;-70
2022/04/03 13:53:49;;;;;;;9.05;2.20;;;;;;;;;;5038185;28;20098;-69
2022/04/03 13:56:19;;;;;;;12.75;2.65;;;;;;;;;;5039607;28;20041;-70
2022/04/03 13:58:45;;;;;;;7.55;2.17;;;;;;;;;;5039635;28;20025;-69
2022/04/03 14:01:11;;;;;;;7.80;2.67;;;;;;;;;;5037889;28;20036;-69
2022/04/03 14:03:37;;;;;;;7.47;2.17;;;;;;;;;;5039322;28;20039;-69
2022/04/03 14:06:04;;;;;;;10.43;2.40;;;;;;;;;;5037658;28;20033;-69
2022/04/03 14:08:30;;;;;;;8.45;2.60;;;;;;;;;;5039471;28;20040;-70
2022/04/03 14:11:00;;;;;;;6.53;2.60;;;;;;;;;;5039839;28;20025;-70
2022/04/03 14:13:28;;;;;;;10.57;3.00;;;;;;;;;;5039170;28;20127;-70
2022/04/03 14:15:58;;;;;;;10.73;2.72;;;;;;;;;;5039639;28;20029;-70
2022/04/03 14:18:27;;;;;;;7.15;2.65;;;;;;;;;;5037770;28;20186;-69
2022/04/03 14:20:57;;;;;;;11.13;3.08;;;;;;;;;;5039689;28;20040;-70
2022/04/03 14:23:36;;;;;;;8.57;2.75;;;;;;;;;;5038104;28;20079;-70
2022/04/03 14:26:06;;;;;;;6.72;2.40;;;;;;;;;;5031762;28;20080;-70
2022/04/03 14:28:33;;;;;;;10.73;3.58;;;;;;;;;;5026978;28;20029;-69
2022/04/03 14:31:00;;;;;;;6.40;2.10;;;;;;;;;;5039369;28;20039;-69
2022/04/03 14:33:26;;;;;;;10.93;3.10;;;;;;;;;;5039078;28;20028;-70
2022/04/03 14:35:55;;;;;;;9.27;3.47;;;;;;;;;;5038610;28;20087;-69
2022/04/03 14:38:22;;;;;;;8.75;3.05;;;;;;;;;;5039212;28;20031;-70
2022/04/03 14:40:48;;;;;;;9.88;4.38;;;;;;;;;;5038754;28;20051;-70
2022/04/03 14:43:14;;;;;;;12.10;3.72;;;;;;;;;;5037504;28;20045;-69
2022/04/03 14:45:40;;;;;;;7.88;2.88;;;;;;;;;;5038598;28;20041;-70